Time;durP1;ratioP1;P1;durP2;ratioP2;P2;SDS_P1;SDS_P2;PMS_P1;PMS_P2;Temp;Humidity;BMP_temperature;BMP_pressure;BME280_temperature;BME280_humidity;BME280_pressure;Samples;Min_cycle;Max_cycle;Signal;HPM_P1;HPM_P2
2021/08/01 00:00:22;;;;;;;11.65;7.70;;;17.20;99.90;;;;;;4987251;28;20203;-78
2021/08/01 00:02:50;;;;;;;14.27;8.48;;;17.20;99.90;;;;;;4988198;28;20212;-78
2021/08/01 00:05:17;;;;;;;12.93;7.55;;;17.20;99.90;;;;;;4988268;28;20523;-79
2021/08/01 00:07:44;;;;;;;10.60;6.90;;;17.20;99.90;;;;;;4986807;28;20671;-81
2021/08/01 00:10:11;;;;;;;12.70;7.00;;;17.20;99.90;;;;;;4987638;28;20207;-78
2021/08/01 00:12:40;;;;;;;12.65;7.25;;;17.20;99.90;;;;;;4988268;28;20789;-80
2021/08/01 00:15:08;;;;;;;14.98;7.93;;;17.20;99.90;;;;;;4987774;28;20208;-79
2021/08/01 00:17:35;;;;;;;13.60;7.68;;;17.20;99.90;;;;;;4988210;28;20196;-80
2021/08/01 00:20:03;;;;;;;11.80;7.20;;;17.20;99.90;;;;;;4986917;28;20216;-81
2021/08/01 00:22:30;;;;;;;9.40;6.63;;;17.20;99.90;;;;;;4986906;28;20513;-80
2021/08/01 00:24:58;;;;;;;11.30;6.47;;;17.20;99.90;;;;;;4986305;28;20211;-79
2021/08/01 00:27:25;;;;;;;10.40;6.10;;;17.20;99.90;;;;;;4986153;28;20654;-80
2021/08/01 00:29:51;;;;;;;11.00;5.57;;;17.20;99.90;;;;;;4986920;28;20226;-82
2021/08/01 00:32:18;;;;;;;6.72;4.97;;;17.30;99.90;;;;;;4986333;28;20254;-81
2021/08/01 00:34:45;;;;;;;5.78;4.55;;;17.20;99.90;;;;;;4986758;28;20204;-80
2021/08/01 00:37:13;;;;;;;4.80;4.05;;;17.20;99.90;;;;;;4986095;28;20208;-81
2021/08/01 00:39:40;;;;;;;11.32;4.90;;;17.30;99.90;;;;;;4987429;28;20215;-80
2021/08/01 00:42:08;;;;;;;6.10;4.15;;;17.30;99.90;;;;;;4991170;28;20211;-81
2021/08/01 00:44:34;;;;;;;9.90;4.70;;;17.30;99.90;;;;;;4986843;28;20319;-82
2021/08/01 00:47:02;;;;;;;5.50;3.70;;;17.30;99.90;;;;;;5002945;28;20238;-81
2021/08/01 00:49:29;;;;;;;5.65;3.67;;;17.30;99.90;;;;;;5005695;28;20611;-80
2021/08/01 00:51:55;;;;;;;7.72;5.55;;;17.30;99.90;;;;;;5006320;28;20227;-81
2021/08/01 00:54:24;;;;;;;12.75;6.32;;;17.40;99.90;;;;;;4994302;28;20204;-81
2021/08/01 00:56:51;;;;;;;7.18;5.78;;;17.30;99.90;;;;;;4986353;28;20208;-82
2021/08/01 00:59:18;;;;;;;12.95;5.82;;;17.30;99.90;;;;;;4996359;28;20218;-80
2021/08/01 01:01:52;;;;;;;10.88;5.40;;;17.30;99.90;;;;;;5006329;28;20203;-81
2021/08/01 01:04:29;;;;;;;9.93;5.32;;;17.30;99.90;;;;;;4988202;28;20212;-81
2021/08/01 01:07:02;;;;;;;14.73;5.45;;;17.30;99.90;;;;;;4986075;28;20222;-80
2021/08/01 01:09:36;;;;;;;7.22;4.57;;;17.30;99.90;;;;;;4985488;28;20300;-81
2021/08/01 01:12:06;;;;;;;9.45;5.43;;;17.30;99.90;;;;;;4999158;28;20237;-82
2021/08/01 01:14:38;;;;;;;6.95;4.60;;;17.30;99.90;;;;;;5006223;28;20210;-81
2021/08/01 01:17:06;;;;;;;9.77;5.28;;;17.30;99.90;;;;;;4995600;28;20204;-81
2021/08/01 01:19:48;;;;;;;12.32;5.03;;;17.30;99.90;;;;;;4986283;28;20271;-81
2021/08/01 01:22:18;;;;;;;8.57;4.78;;;17.30;99.90;;;;;;4985944;28;20212;-80
2021/08/01 01:24:49;;;;;;;6.72;4.25;;;17.40;99.90;;;;;;4988019;28;20211;-82
2021/08/01 01:27:25;;;;;;;11.68;5.22;;;17.30;99.90;;;;;;4987995;28;20208;-82
2021/08/01 01:29:59;;;;;;;10.18;4.57;;;17.40;99.90;;;;;;4993258;28;20199;-82
2021/08/01 01:32:35;;;;;;;6.82;4.30;;;17.40;99.90;;;;;;4992415;28;20227;-80
2021/08/01 01:35:08;;;;;;;8.63;3.95;;;17.40;99.90;;;;;;4992057;28;20208;-81
2021/08/01 01:37:36;;;;;;;8.45;4.00;;;17.40;99.90;;;;;;4989920;28;20208;-79
2021/08/01 01:40:05;;;;;;;6.38;3.83;;;17.40;99.90;;;;;;4986789;28;20212;-80
2021/08/01 01:42:33;;;;;;;8.50;4.25;;;17.50;99.90;;;;;;4987251;28;20204;-80
2021/08/01 01:45:02;;;;;;;9.43;5.03;;;17.50;99.90;;;;;;4986155;28;20212;-80
2021/08/01 01:47:29;;;;;;;7.72;4.80;;;17.50;99.90;;;;;;4986459;28;20239;-79
2021/08/01 01:49:58;;;;;;;9.50;5.03;;;17.50;99.90;;;;;;4986868;28;20219;-79
2021/08/01 01:52:28;;;;;;;7.95;4.50;;;17.60;99.90;;;;;;4984778;28;20671;-78
2021/08/01 01:54:57;;;;;;;10.90;4.32;;;17.60;99.90;;;;;;4986083;28;20204;-78
2021/08/01 01:57:24;;;;;;;8.93;4.28;;;17.60;99.90;;;;;;4986886;28;20207;-80
2021/08/01 01:59:51;;;;;;;8.45;4.13;;;17.60;99.90;;;;;;4986257;28;20215;-78
2021/08/01 02:02:18;;;;;;;6.25;3.95;;;17.60;99.90;;;;;;4986530;28;20200;-80
2021/08/01 02:04:45;;;;;;;9.07;4.50;;;17.60;99.90;;;;;;4987023;28;20207;-80
2021/08/01 02:07:12;;;;;;;13.90;5.00;;;17.60;99.90;;;;;;4993148;28;20210;-81
2021/08/01 02:09:47;;;;;;;12.60;5.40;;;17.60;99.90;;;;;;5005737;28;20210;-80
2021/08/01 02:12:19;;;;;;;8.27;5.15;;;17.60;99.90;;;;;;4989093;28;20267;-80
2021/08/01 02:14:54;;;;;;;6.20;4.00;;;17.60;99.90;;;;;;4985649;28;20196;-77
2021/08/01 02:17:31;;;;;;;7.47;4.18;;;17.60;99.90;;;;;;4986755;28;20215;-80
2021/08/01 02:20:01;;;;;;;8.93;4.20;;;17.60;99.90;;;;;;4985824;28;20215;-80
2021/08/01 02:22:29;;;;;;;9.63;4.97;;;17.60;99.90;;;;;;4986045;28;20196;-80
2021/08/01 02:24:56;;;;;;;8.50;5.38;;;17.60;99.90;;;;;;4986332;28;20203;-81
2021/08/01 02:27:25;;;;;;;12.20;6.28;;;17.70;99.90;;;;;;4985509;28;20584;-80
2021/08/01 02:29:52;;;;;;;11.73;4.93;;;17.70;99.90;;;;;;4985453;28;20593;-81
2021/08/01 02:32:20;;;;;;;11.02;5.95;;;17.70;99.90;;;;;;4985917;28;20646;-79
2021/08/01 02:34:48;;;;;;;15.57;5.25;;;17.70;99.90;;;;;;4985960;28;20208;-80
2021/08/01 02:37:16;;;;;;;6.30;3.97;;;17.70;99.90;;;;;;4985406;28;20214;-80
2021/08/01 02:39:44;;;;;;;13.70;6.40;;;17.70;99.90;;;;;;4986343;28;20208;-80
2021/08/01 02:42:13;;;;;;;10.88;6.07;;;17.70;99.90;;;;;;4985825;28;20406;-80
2021/08/01 02:44:43;;;;;;;12.90;6.72;;;17.70;99.90;;;;;;4986555;28;20224;-81
2021/08/01 02:47:13;;;;;;;9.38;5.10;;;17.70;99.90;;;;;;4985537;28;20243;-79
2021/08/01 02:49:44;;;;;;;8.70;4.60;;;17.70;99.90;;;;;;4985778;28;20582;-79
2021/08/01 02:52:13;;;;;;;7.70;3.60;;;17.70;99.90;;;;;;4986180;28;20230;-78
2021/08/01 02:54:42;;;;;;;8.40;4.05;;;17.80;99.90;;;;;;4986135;28;20207;-77
2021/08/01 02:57:13;;;;;;;6.50;3.15;;;17.80;99.90;;;;;;4985063;28;20212;-78
2021/08/01 02:59:43;;;;;;;5.55;3.08;;;17.80;99.90;;;;;;4985735;28;20196;-81
2021/08/01 03:02:11;;;;;;;5.85;3.03;;;17.80;99.90;;;;;;4985136;28;20203;-79
2021/08/01 03:04:40;;;;;;;9.55;3.50;;;17.80;99.90;;;;;;4985377;28;20207;-77
2021/08/01 03:07:07;;;;;;;4.82;2.75;;;17.80;99.90;;;;;;4985164;28;20210;-79
2021/08/01 03:09:35;;;;;;;7.13;2.75;;;17.80;99.90;;;;;;4984418;28;20191;-78
2021/08/01 03:12:09;;;;;;;6.22;2.90;;;17.80;99.90;;;;;;4985273;28;20215;-79
2021/08/01 03:14:36;;;;;;;5.75;2.75;;;17.90;99.90;;;;;;4985872;28;20208;-78
2021/08/01 03:17:04;;;;;;;6.07;2.65;;;17.80;99.90;;;;;;4985501;28;20207;-77
2021/08/01 03:19:33;;;;;;;9.45;3.60;;;17.80;99.90;;;;;;4986039;28;20203;-80
2021/08/01 03:22:00;;;;;;;6.47;3.22;;;17.80;99.90;;;;;;4986172;28;20204;-79
2021/08/01 03:24:27;;;;;;;6.00;3.80;;;17.80;99.90;;;;;;4985217;28;20215;-81
2021/08/01 03:26:54;;;;;;;7.70;3.15;;;17.80;99.90;;;;;;4986555;28;20200;-77
2021/08/01 03:29:21;;;;;;;5.53;3.17;;;17.80;99.90;;;;;;4986097;28;20207;-80
2021/08/01 03:31:47;;;;;;;4.53;3.67;;;17.80;99.90;;;;;;4985852;28;20222;-79
2021/08/01 03:34:16;;;;;;;4.78;3.53;;;17.80;99.90;;;;;;4985727;28;20302;-80
2021/08/01 03:36:43;;;;;;;5.88;2.97;;;17.80;99.90;;;;;;4985722;28;20208;-78
2021/08/01 03:39:09;;;;;;;5.30;2.90;;;17.80;99.90;;;;;;4986088;28;20226;-81
2021/08/01 03:41:36;;;;;;;6.45;3.53;;;17.80;99.90;;;;;;4987052;28;20199;-80
2021/08/01 03:44:03;;;;;;;6.82;2.92;;;17.70;99.90;;;;;;5001854;28;20230;-77
2021/08/01 03:46:30;;;;;;;4.20;2.90;;;17.70;99.90;;;;;;5005078;28;20196;-81
2021/08/01 03:48:57;;;;;;;4.80;3.10;;;17.70;99.90;;;;;;4989309;28;20647;-79
2021/08/01 03:51:25;;;;;;;5.10;3.53;;;17.70;99.90;;;;;;4998777;28;20222;-80
2021/08/01 03:53:52;;;;;;;3.95;2.47;;;17.70;99.90;;;;;;5008829;28;20226;-82
2021/08/01 03:56:18;;;;;;;5.97;3.65;;;17.70;99.90;;;;;;5008945;28;20207;-79
2021/08/01 03:58:45;;;;;;;5.40;2.95;;;17.70;99.90;;;;;;4994243;28;20695;-77
2021/08/01 04:01:13;;;;;;;5.28;2.90;;;17.70;99.90;;;;;;4988706;28;20211;-78
2021/08/01 04:03:40;;;;;;;3.72;3.03;;;17.60;99.90;;;;;;4988820;28;20213;-77
2021/08/01 04:06:06;;;;;;;5.43;3.40;;;17.60;99.90;;;;;;4987346;28;20208;-78
2021/08/01 04:08:35;;;;;;;3.92;3.10;;;17.60;99.90;;;;;;4988720;28;20211;-80
2021/08/01 04:11:04;;;;;;;6.00;3.45;;;17.60;99.90;;;;;;4988571;28;20203;-78
2021/08/01 04:13:31;;;;;;;4.55;3.70;;;17.60;99.90;;;;;;4987220;28;20299;-78
2021/08/01 04:15:58;;;;;;;3.92;3.33;;;17.50;99.90;;;;;;4987598;28;20207;-78
2021/08/01 04:18:25;;;;;;;6.28;3.47;;;17.50;99.90;;;;;;4987668;28;20605;-79
2021/08/01 04:20:52;;;;;;;7.00;3.67;;;17.50;99.90;;;;;;4987660;28;20212;-81
2021/08/01 04:23:18;;;;;;;7.13;3.83;;;17.50;99.90;;;;;;4988046;28;20219;-79
2021/08/01 04:25:47;;;;;;;4.82;4.15;;;17.50;99.90;;;;;;4988800;28;20204;-80
2021/08/01 04:28:14;;;;;;;6.30;4.25;;;17.50;99.90;;;;;;4988653;28;20211;-78
2021/08/01 04:30:40;;;;;;;7.72;4.03;;;17.50;99.90;;;;;;4989639;28;20211;-78
2021/08/01 04:33:07;;;;;;;7.25;4.03;;;17.50;99.90;;;;;;4989315;28;20235;-78
2021/08/01 04:35:34;;;;;;;6.15;3.80;;;17.60;99.90;;;;;;4989151;28;20204;-80
2021/08/01 04:38:02;;;;;;;6.85;4.45;;;17.50;99.90;;;;;;4989145;28;20271;-81
2021/08/01 04:40:28;;;;;;;5.43;3.80;;;17.50;99.90;;;;;;4988568;28;20201;-78
2021/08/01 04:42:57;;;;;;;6.28;4.30;;;17.50;99.90;;;;;;4987892;28;20204;-81
2021/08/01 04:45:24;;;;;;;5.32;4.25;;;17.50;99.90;;;;;;4988642;28;20312;-79
2021/08/01 04:47:51;;;;;;;5.97;5.25;;;17.50;99.90;;;;;;4997724;28;20670;-79
2021/08/01 04:50:18;;;;;;;11.43;6.30;;;17.50;99.90;;;;;;5007680;28;20203;-81
2021/08/01 04:52:44;;;;;;;8.82;6.13;;;17.50;99.90;;;;;;5007930;28;20223;-80
2021/08/01 04:55:12;;;;;;;8.43;6.00;;;17.50;99.90;;;;;;5005701;28;20215;-79
2021/08/01 04:57:39;;;;;;;10.88;7.20;;;17.50;99.90;;;;;;5006964;28;20214;-79
2021/08/01 05:00:09;;;;;;;8.15;7.25;;;17.60;99.90;;;;;;4987939;28;20519;-77
2021/08/01 05:02:35;;;;;;;10.05;7.60;;;17.60;99.90;;;;;;4985782;28;20292;-79
2021/08/01 05:05:03;;;;;;;8.80;6.35;;;17.60;99.90;;;;;;4987043;28;20573;-80
2021/08/01 05:07:30;;;;;;;10.00;6.53;;;17.60;99.90;;;;;;5000246;28;20215;-80
2021/08/01 05:09:56;;;;;;;10.13;7.13;;;17.70;99.90;;;;;;5007572;28;20208;-80
2021/08/01 05:12:23;;;;;;;8.38;7.15;;;17.60;99.90;;;;;;4978041;28;20302;-79
2021/08/01 05:14:50;;;;;;;10.93;7.93;;;17.60;99.90;;;;;;4987167;28;20228;-80
2021/08/01 05:17:19;;;;;;;7.53;6.57;;;17.70;99.90;;;;;;4986535;28;20208;-80
2021/08/01 05:19:46;;;;;;;11.63;7.43;;;17.70;99.90;;;;;;4988144;28;20203;-81
2021/08/01 05:22:13;;;;;;;8.82;7.63;;;17.70;99.90;;;;;;4987455;28;20208;-81
2021/08/01 05:24:43;;;;;;;10.18;6.60;;;17.70;99.90;;;;;;4987105;28;20208;-80
2021/08/01 05:27:10;;;;;;;6.97;5.97;;;17.70;99.90;;;;;;4987700;28;20211;-78
2021/08/01 05:29:37;;;;;;;9.07;6.43;;;17.70;99.90;;;;;;4987268;28;20204;-78
2021/08/01 05:32:04;;;;;;;7.60;6.60;;;17.80;99.90;;;;;;4988514;28;20215;-81
2021/08/01 05:34:33;;;;;;;8.95;6.93;;;17.80;99.90;;;;;;4987128;28;20234;-79
2021/08/01 05:36:59;;;;;;;8.90;6.25;;;17.80;99.90;;;;;;4986753;28;20508;-81
2021/08/01 05:39:26;;;;;;;8.90;6.13;;;17.80;99.90;;;;;;4986943;28;20211;-79
2021/08/01 05:41:53;;;;;;;8.15;7.00;;;17.90;99.90;;;;;;4990623;28;20275;-80
2021/08/01 05:44:20;;;;;;;8.20;7.05;;;17.90;99.90;;;;;;5009434;28;20227;-80
2021/08/01 05:46:47;;;;;;;7.70;6.60;;;18.00;99.90;;;;;;5009557;28;20238;-80
2021/08/01 05:49:13;;;;;;;7.35;5.78;;;18.00;99.90;;;;;;5000305;28;20228;-78
2021/08/01 05:51:42;;;;;;;7.35;6.20;;;18.00;99.90;;;;;;4988544;28;20204;-80
2021/08/01 05:54:09;;;;;;;8.95;6.25;;;18.10;99.90;;;;;;4987791;28;20230;-81
2021/08/01 05:56:35;;;;;;;7.43;5.82;;;18.10;99.90;;;;;;4987697;28;20207;-81
2021/08/01 05:59:02;;;;;;;7.22;4.97;;;18.10;99.90;;;;;;4988030;28;20811;-80
2021/08/01 06:01:29;;;;;;;5.65;4.65;;;18.10;99.90;;;;;;4987124;28;20208;-78
2021/08/01 06:03:56;;;;;;;6.47;5.00;;;18.10;99.90;;;;;;4986619;28;20203;-80
2021/08/01 06:06:24;;;;;;;6.40;5.80;;;18.10;99.90;;;;;;4987284;28;20544;-78
2021/08/01 06:08:53;;;;;;;6.63;5.65;;;18.20;99.90;;;;;;4987141;28;20220;-79
2021/08/01 06:11:21;;;;;;;5.93;5.28;;;18.20;99.90;;;;;;4987474;28;20214;-82
2021/08/01 06:13:49;;;;;;;9.43;5.15;;;18.20;99.90;;;;;;4986575;28;20301;-81
2021/08/01 06:16:17;;;;;;;7.07;4.82;;;18.20;99.90;;;;;;4986654;28;20235;-79
2021/08/01 06:18:45;;;;;;;7.45;5.90;;;18.30;99.90;;;;;;4986579;28;20494;-79
2021/08/01 06:21:15;;;;;;;5.65;5.10;;;18.30;99.90;;;;;;4987570;28;20219;-81
2021/08/01 06:23:43;;;;;;;11.73;6.00;;;18.30;99.90;;;;;;4987565;28;20207;-80
2021/08/01 06:26:12;;;;;;;9.63;6.47;;;18.30;99.90;;;;;;4986491;28;20262;-80
2021/08/01 06:28:39;;;;;;;5.75;5.10;;;18.30;99.90;;;;;;4987012;28;20227;-77
2021/08/01 06:31:07;;;;;;;6.30;5.25;;;18.40;99.90;;;;;;4998641;28;20207;-80
2021/08/01 06:33:36;;;;;;;7.10;5.68;;;18.40;99.90;;;;;;4989585;28;20223;-81
2021/08/01 06:36:05;;;;;;;6.20;4.28;;;18.50;99.90;;;;;;4990857;28;20684;-82
2021/08/01 06:38:32;;;;;;;7.72;5.13;;;18.50;99.90;;;;;;4988257;28;20262;-79
2021/08/01 06:40:59;;;;;;;5.65;4.38;;;18.50;99.90;;;;;;4987502;28;20196;-79
2021/08/01 06:43:28;;;;;;;6.43;4.70;;;18.60;99.90;;;;;;4985891;28;20596;-79
2021/08/01 06:45:55;;;;;;;6.15;4.20;;;18.60;99.90;;;;;;4985891;28;20203;-79
2021/08/01 06:48:22;;;;;;;4.75;4.07;;;18.60;99.90;;;;;;4984726;28;20247;-80
2021/08/01 06:50:50;;;;;;;5.85;3.97;;;18.50;99.90;;;;;;4986705;28;20202;-80
2021/08/01 06:53:17;;;;;;;6.50;4.78;;;18.50;99.90;;;;;;4989364;28;20235;-80
2021/08/01 06:55:44;;;;;;;6.50;3.95;;;18.50;99.90;;;;;;5004016;28;20246;-83
2021/08/01 06:58:11;;;;;;;7.07;4.80;;;18.40;99.90;;;;;;5000927;28;20210;-83
2021/08/01 07:00:39;;;;;;;5.70;3.97;;;18.30;99.90;;;;;;4999554;28;20204;-83
2021/08/01 07:03:05;;;;;;;6.97;3.78;;;18.20;99.90;;;;;;5008396;28;20210;-83
2021/08/01 07:05:32;;;;;;;4.95;4.38;;;18.10;99.90;;;;;;5004227;28;20213;-83
2021/08/01 07:07:59;;;;;;;3.80;3.50;;;18.00;99.90;;;;;;4993808;28;20204;-81
2021/08/01 07:10:26;;;;;;;4.22;3.55;;;18.00;99.90;;;;;;4986566;28;20200;-82
2021/08/01 07:12:53;;;;;;;5.38;3.90;;;17.90;99.90;;;;;;5001557;28;20219;-81
2021/08/01 07:15:25;;;;;;;7.13;4.75;;;17.90;99.90;;;;;;5007040;28;20226;-83
2021/08/01 07:17:56;;;;;;;5.47;4.65;;;17.90;99.90;;;;;;5004078;28;20207;-81
2021/08/01 07:20:24;;;;;;;9.38;6.40;;;17.80;99.90;;;;;;4993511;28;20188;-83
2021/08/01 07:22:52;;;;;;;5.85;4.82;;;17.80;99.90;;;;;;4992969;28;20212;-84
2021/08/01 07:25:19;;;;;;;6.13;4.28;;;17.80;99.90;;;;;;4992306;28;20211;-80
2021/08/01 07:27:46;;;;;;;6.97;5.53;;;17.70;99.90;;;;;;4992054;28;20211;-81
2021/08/01 07:30:14;;;;;;;5.15;4.22;;;17.80;99.90;;;;;;4992134;28;20212;-85
2021/08/01 07:54:22;;;;;;;5.25;2.67;;;17.60;99.90;;;;;;4977660;28;20232;-87
2021/08/01 07:56:49;;;;;;;3.33;2.45;;;17.60;99.90;;;;;;4973715;28;20282;-83
2021/08/01 07:59:16;;;;;;;4.10;2.95;;;17.50;99.90;;;;;;4957293;28;20209;-85
2021/08/01 08:01:42;;;;;;;5.28;2.67;;;17.50;99.90;;;;;;4994089;28;20590;-85
2021/08/01 08:04:09;;;;;;;4.35;3.25;;;17.40;99.90;;;;;;4992924;28;20223;-85
2021/08/01 08:06:36;;;;;;;3.88;2.90;;;17.50;99.90;;;;;;4992715;28;20203;-84
2021/08/01 08:09:05;;;;;;;5.75;3.13;;;17.50;99.90;;;;;;4978248;28;20213;-83
2021/08/01 08:11:33;;;;;;;7.05;3.25;;;17.50;99.90;;;;;;4973713;28;20212;-85
2021/08/01 08:14:00;;;;;;;4.65;3.05;;;17.60;99.90;;;;;;4975275;28;20283;-84
2021/08/01 08:16:27;;;;;;;6.43;3.05;;;17.60;99.90;;;;;;4993561;28;20211;-82
2021/08/01 08:18:55;;;;;;;6.32;3.65;;;17.60;99.90;;;;;;4994232;28;20219;-83
2021/08/01 08:21:26;;;;;;;9.63;4.22;;;17.70;99.90;;;;;;4991127;28;20204;-83
2021/08/01 08:23:53;;;;;;;8.93;4.68;;;17.80;99.90;;;;;;4992902;28;20366;-86
2021/08/01 08:26:20;;;;;;;7.25;3.85;;;17.90;99.90;;;;;;4993000;28;20296;-82
2021/08/01 08:28:48;;;;;;;6.57;3.72;;;18.00;99.90;;;;;;4989900;28;20230;-86
2021/08/01 08:31:14;;;;;;;9.57;5.45;;;18.10;99.90;;;;;;4972021;28;20947;-83
2021/08/01 08:33:42;;;;;;;8.60;5.75;;;18.20;99.90;;;;;;4972026;28;20208;-89
2021/08/01 08:36:09;;;;;;;9.52;5.50;;;18.30;99.90;;;;;;4971899;28;20232;-85
2021/08/01 08:38:36;;;;;;;8.18;5.70;;;18.30;99.90;;;;;;4971871;28;20209;-81
2021/08/01 08:41:03;;;;;;;6.95;5.55;;;18.40;99.90;;;;;;4970406;28;20215;-88
2021/08/01 08:43:29;;;;;;;8.02;5.40;;;18.50;99.90;;;;;;4971135;28;20240;-86
2021/08/01 08:45:59;;;;;;;5.75;5.18;;;18.60;99.90;;;;;;4970904;28;20208;-82
2021/08/01 08:48:29;;;;;;;6.00;5.25;;;18.50;99.90;;;;;;4969613;28;20236;-82
2021/08/01 08:50:56;;;;;;;6.63;5.40;;;18.50;99.90;;;;;;4968644;28;20220;-82
2021/08/01 08:53:27;;;;;;;5.65;4.63;;;18.50;99.90;;;;;;4968608;28;20244;-81
2021/08/01 08:55:55;;;;;;;5.82;5.20;;;18.50;99.90;;;;;;4969929;28;20231;-82
2021/08/01 08:58:26;;;;;;;5.85;5.18;;;18.50;99.90;;;;;;4969069;28;20209;-83
2021/08/01 09:00:53;;;;;;;5.63;4.82;;;18.50;99.90;;;;;;4974814;28;20486;-81
2021/08/01 09:03:21;;;;;;;5.45;4.55;;;18.40;99.90;;;;;;4987599;28;20215;-83
2021/08/01 09:05:52;;;;;;;5.85;5.03;;;18.50;99.90;;;;;;4988646;28;20211;-83
2021/08/01 09:08:19;;;;;;;5.45;4.68;;;18.60;99.90;;;;;;4988845;28;20207;-81
2021/08/01 09:10:46;;;;;;;5.10;4.60;;;18.60;99.90;;;;;;4989133;28;20215;-82
2021/08/01 09:13:13;;;;;;;5.55;4.80;;;18.70;99.90;;;;;;4990194;28;20212;-84
2021/08/01 09:15:39;;;;;;;4.53;4.15;;;18.80;99.90;;;;;;4989255;28;20994;-82
2021/08/01 09:18:12;;;;;;;4.97;4.40;;;18.90;99.90;;;;;;4972147;28;20219;-83
2021/08/01 09:20:49;;;;;;;8.73;4.65;;;19.00;99.90;;;;;;4970553;28;20854;-83
2021/08/01 09:23:16;;;;;;;4.93;4.18;;;19.00;99.90;;;;;;4969864;28;20212;-83
2021/08/01 09:25:44;;;;;;;4.70;4.20;;;19.20;99.90;;;;;;4970359;28;20204;-83
2021/08/01 09:28:16;;;;;;;4.57;4.00;;;19.50;99.90;;;;;;4981306;28;20554;-83
2021/08/01 09:30:49;;;;;;;7.18;3.92;;;20.00;99.90;;;;;;4981354;28;20205;-84
2021/08/01 09:33:20;;;;;;;8.63;3.90;;;20.40;99.90;;;;;;4973311;28;20232;-81
2021/08/01 09:36:05;;;;;;;3.65;3.28;;;20.80;99.90;;;;;;4973983;28;20274;-80
2021/08/01 09:38:44;;;;;;;3.40;3.10;;;20.80;99.90;;;;;;4970676;28;20192;-80
2021/08/01 09:41:11;;;;;;;4.45;3.47;;;20.90;99.90;;;;;;4969422;28;20255;-79
2021/08/01 09:43:44;;;;;;;3.80;3.40;;;21.10;99.90;;;;;;4968120;28;20227;-86
2021/08/01 09:46:11;;;;;;;3.53;3.10;;;21.20;99.90;;;;;;4969744;28;20668;-81
2021/08/01 09:48:39;;;;;;;3.72;3.40;;;21.40;99.90;;;;;;4968098;28;20207;-80
2021/08/01 09:51:09;;;;;;;3.85;3.55;;;21.60;99.90;;;;;;4966855;28;20216;-80
2021/08/01 09:53:37;;;;;;;4.53;3.33;;;21.60;99.90;;;;;;4966997;28;20247;-77
2021/08/01 09:56:18;;;;;;;3.95;3.55;;;21.70;99.90;;;;;;4967430;28;20311;-80
2021/08/01 09:58:47;;;;;;;4.60;3.33;;;21.80;99.90;;;;;;4966193;28;20609;-77
2021/08/01 10:01:13;;;;;;;3.72;3.42;;;21.70;99.90;;;;;;4985698;28;20227;-80
2021/08/01 10:03:42;;;;;;;4.70;3.22;;;21.70;99.90;;;;;;4985907;28;20576;-80
2021/08/01 10:06:11;;;;;;;5.13;3.42;;;21.50;99.90;;;;;;4985165;28;20490;-79
2021/08/01 10:08:39;;;;;;;3.45;2.90;;;21.40;99.90;;;;;;4979092;28;20216;-79
2021/08/01 10:11:12;;;;;;;4.03;3.17;;;21.40;99.90;;;;;;4964423;28;20576;-78
2021/08/01 10:13:39;;;;;;;2.85;2.65;;;21.40;99.90;;;;;;4965452;28;20636;-79
2021/08/01 10:16:08;;;;;;;3.65;3.38;;;21.20;99.90;;;;;;4965884;28;20239;-78
2021/08/01 10:18:35;;;;;;;2.75;2.55;;;21.10;99.90;;;;;;4964144;28;20783;-77
2021/08/01 10:21:03;;;;;;;4.03;2.80;;;21.10;99.90;;;;;;4964949;28;20205;-78
2021/08/01 10:23:37;;;;;;;4.90;3.40;;;21.00;99.90;;;;;;4964705;28;20597;-79
2021/08/01 10:26:07;;;;;;;3.60;2.97;;;20.90;99.90;;;;;;4964560;28;20283;-79
2021/08/01 10:28:35;;;;;;;3.38;3.08;;;20.90;99.90;;;;;;4964797;28;20304;-78
2021/08/01 10:31:05;;;;;;;3.25;2.67;;;21.10;99.90;;;;;;4964790;28;20204;-77
2021/08/01 10:33:46;;;;;;;3.17;2.88;;;21.40;99.90;;;;;;4964620;28;20674;-78
2021/08/01 10:36:21;;;;;;;3.35;2.67;;;21.70;99.90;;;;;;4964073;28;20324;-77
2021/08/01 10:38:51;;;;;;;2.78;2.47;;;22.00;99.90;;;;;;4964633;28;20196;-78
2021/08/01 10:41:22;;;;;;;2.55;2.28;;;22.30;99.90;;;;;;4964316;28;20204;-77
2021/08/01 10:43:50;;;;;;;3.70;2.65;;;22.50;99.90;;;;;;4964648;28;20863;-78
2021/08/01 10:46:20;;;;;;;3.70;2.30;;;22.50;99.90;;;;;;4963707;28;20640;-79
2021/08/01 10:48:47;;;;;;;3.10;2.67;;;22.30;99.90;;;;;;4979071;28;20478;-81
2021/08/01 10:51:14;;;;;;;3.63;2.55;;;22.20;99.90;;;;;;4979923;28;20204;-80
2021/08/01 10:53:41;;;;;;;2.60;2.40;;;22.10;99.90;;;;;;4973496;28;20244;-79
2021/08/01 10:56:32;;;;;;;7.55;3.08;;;22.10;99.90;;;;;;4974748;28;20235;-78
2021/08/01 10:59:00;;;;;;;2.70;2.50;;;22.00;99.90;;;;;;4981511;28;20215;-80
2021/08/01 11:01:27;;;;;;;4.03;2.75;;;22.00;99.90;;;;;;4967349;28;20212;-79
2021/08/01 11:04:37;;;;;;;4.45;2.70;;;21.90;99.90;;;;;;4968197;28;20683;-80
2021/08/01 11:07:04;;;;;;;3.90;2.40;;;21.90;99.90;;;;;;4968059;28;20236;-81
2021/08/01 11:09:31;;;;;;;4.20;3.05;;;21.80;99.90;;;;;;4968676;28;20204;-79
2021/08/01 11:12:28;;;;;;;3.58;2.58;;;21.70;99.90;;;;;;4967997;28;20212;-79
2021/08/01 11:14:55;;;;;;;3.65;2.80;;;21.70;99.90;;;;;;4967416;28;20224;-79
2021/08/01 11:17:57;;;;;;;3.50;2.88;;;21.50;99.90;;;;;;4968264;28;20841;-79
2021/08/01 11:20:52;;;;;;;3.30;3.00;;;21.20;99.90;;;;;;4973923;28;20215;-80
2021/08/01 11:23:18;;;;;;;3.00;2.70;;;21.00;99.90;;;;;;4986699;28;20933;-79
2021/08/01 11:26:11;;;;;;;2.80;2.60;;;20.90;99.90;;;;;;4987652;28;20196;-80
2021/08/01 11:28:41;;;;;;;3.38;2.70;;;20.80;99.90;;;;;;4976920;28;20239;-79
2021/08/01 11:31:25;;;;;;;3.13;1.83;;;20.60;99.90;;;;;;4968185;28;20307;-80
2021/08/01 11:33:53;;;;;;;3.47;1.45;;;20.40;99.90;;;;;;4968653;28;20209;-79
2021/08/01 11:36:25;;;;;;;1.90;1.40;;;20.10;99.90;;;;;;4967334;28;20259;-80
2021/08/01 11:39:06;;;;;;;4.38;1.50;;;20.00;99.90;;;;;;4968129;28;20605;-80
2021/08/01 11:41:41;;;;;;;2.28;1.27;;;19.80;99.90;;;;;;4967812;28;20212;-79
2021/08/01 11:44:14;;;;;;;2.40;1.23;;;19.60;99.90;;;;;;4967476;28;20224;-80
2021/08/01 11:47:04;;;;;;;2.10;1.20;;;19.50;99.90;;;;;;4968239;28;20246;-78
2021/08/01 11:49:33;;;;;;;2.33;1.20;;;19.50;99.90;;;;;;4967052;28;20209;-79
2021/08/01 11:52:02;;;;;;;2.25;1.13;;;19.60;99.90;;;;;;4967830;28;20205;-79
2021/08/01 11:54:31;;;;;;;2.88;1.42;;;19.80;99.90;;;;;;4956062;28;20208;-79
2021/08/01 11:57:03;;;;;;;1.90;1.17;;;19.80;99.90;;;;;;4969518;28;20204;-79
2021/08/01 11:59:32;;;;;;;1.98;1.27;;;19.90;99.90;;;;;;4972066;28;20216;-78
2021/08/01 12:01:59;;;;;;;2.40;1.08;;;20.00;99.90;;;;;;4955993;28;20217;-78
2021/08/01 12:04:27;;;;;;;1.88;1.20;;;20.10;99.90;;;;;;4952810;28;20217;-79
2021/08/01 12:06:55;;;;;;;1.83;1.33;;;20.20;99.90;;;;;;4953494;28;20201;-79
2021/08/01 12:09:23;;;;;;;2.42;1.40;;;20.30;99.90;;;;;;4972431;28;20205;-80
2021/08/01 12:11:51;;;;;;;2.30;1.17;;;20.30;99.90;;;;;;4978012;28;20682;-78
2021/08/01 12:14:18;;;;;;;1.63;0.93;;;20.40;99.90;;;;;;4949131;28;20213;-78
2021/08/01 12:17:08;;;;;;;1.92;1.10;;;20.40;99.90;;;;;;4949011;29;20660;-78
2021/08/01 12:19:37;;;;;;;3.70;1.25;;;20.40;99.90;;;;;;4944078;29;20217;-79
2021/08/01 12:22:08;;;;;;;3.78;1.30;;;20.40;99.90;;;;;;4948890;28;21213;-79
2021/08/01 12:24:39;;;;;;;3.10;1.30;;;20.30;99.90;;;;;;4948465;29;20667;-79
2021/08/01 12:27:09;;;;;;;2.88;1.17;;;20.30;99.90;;;;;;4949222;29;20205;-79
2021/08/01 12:29:39;;;;;;;2.35;1.55;;;20.30;99.90;;;;;;4948518;29;20209;-79
2021/08/01 12:32:29;;;;;;;2.55;1.30;;;20.30;99.90;;;;;;4948467;28;20252;-80
2021/08/01 12:35:05;;;;;;;2.83;1.20;;;20.40;99.90;;;;;;4948994;28;20244;-81
2021/08/01 12:37:41;;;;;;;3.03;1.58;;;20.50;99.90;;;;;;4948506;29;20672;-78
2021/08/01 12:40:10;;;;;;;1.48;1.25;;;20.50;99.90;;;;;;4948331;28;20220;-77
2021/08/01 12:42:49;;;;;;;1.33;1.17;;;20.60;99.90;;;;;;4948469;28;20664;-78
2021/08/01 12:45:16;;;;;;;1.63;1.20;;;20.70;99.90;;;;;;4948683;29;20225;-80
2021/08/01 12:47:45;;;;;;;1.75;0.90;;;20.70;99.90;;;;;;4948429;28;20206;-77
2021/08/01 12:50:14;;;;;;;2.58;1.15;;;20.70;99.90;;;;;;4957572;28;20440;-77
2021/08/01 12:52:41;;;;;;;1.63;1.10;;;20.60;99.90;;;;;;4973652;28;20240;-80
2021/08/01 12:55:10;;;;;;;4.03;1.25;;;20.50;99.90;;;;;;4985451;28;20211;-80
2021/08/01 12:57:57;;;;;;;3.58;1.60;;;20.70;99.90;;;;;;4967233;28;20620;-80
2021/08/01 13:00:29;;;;;;;2.05;1.10;;;21.00;99.90;;;;;;4966961;28;20203;-78
2021/08/01 13:02:58;;;;;;;2.67;1.35;;;21.20;99.90;;;;;;4971429;28;20524;-79
2021/08/01 13:05:26;;;;;;;3.65;1.27;;;21.30;99.90;;;;;;4986854;28;20672;-80
2021/08/01 13:07:53;;;;;;;2.20;1.27;;;21.30;99.90;;;;;;4986260;28;20208;-78
2021/08/01 13:10:20;;;;;;;2.60;1.23;;;21.20;99.90;;;;;;4986181;28;20196;-79
2021/08/01 13:13:12;;;;;;;3.13;1.30;;;21.20;99.90;;;;;;4972180;28;20215;-78
2021/08/01 13:15:42;;;;;;;1.98;0.98;;;21.00;99.90;;;;;;4966650;28;20250;-77
2021/08/01 13:18:23;;;;;;;4.57;1.40;;;20.90;99.90;;;;;;4967131;28;20506;-77